Time;durP1;ratioP1;P1;durP2;ratioP2;P2;SDS_P1;SDS_P2;PMS_P1;PMS_P2;Temp;Humidity;BMP_temperature;BMP_pressure;BME280_temperature;BME280_humidity;BME280_pressure;Samples;Min_cycle;Max_cycle;Signal;HPM_P1;HPM_P2
2023/07/29 00:00:43;;;;;;;16.00;10.70;;;18.90;99.90;;;;;;6271798;22;20031;-69
2023/07/29 00:03:09;;;;;;;16.58;10.15;;;18.80;99.90;;;;;;6245024;22;20073;-69
2023/07/29 00:05:35;;;;;;;15.38;10.13;;;18.80;99.90;;;;;;6244121;22;20505;-69
2023/07/29 00:08:01;;;;;;;15.85;10.57;;;18.80;99.90;;;;;;6244913;22;20016;-69
2023/07/29 00:10:27;;;;;;;12.50;9.57;;;18.80;99.90;;;;;;6244767;22;20019;-69
2023/07/29 00:12:53;;;;;;;15.63;9.98;;;18.80;99.90;;;;;;6219260;22;20417;-69
2023/07/29 00:15:18;;;;;;;13.48;9.88;;;18.70;99.90;;;;;;6244316;22;20078;-69
2023/07/29 00:17:44;;;;;;;14.25;10.07;;;18.70;99.90;;;;;;6244642;22;20018;-69
2023/07/29 00:20:10;;;;;;;13.77;9.95;;;18.70;99.90;;;;;;6244561;22;20408;-69
2023/07/29 00:22:36;;;;;;;16.35;10.77;;;18.70;99.90;;;;;;6244858;22;20025;-69
2023/07/29 00:25:02;;;;;;;14.93;10.32;;;18.70;99.90;;;;;;6271482;22;20099;-69
2023/07/29 00:27:27;;;;;;;18.05;11.27;;;18.60;99.90;;;;;;6244664;22;20024;-69
2023/07/29 00:29:53;;;;;;;16.63;11.15;;;18.60;99.90;;;;;;6244500;22;20034;-69
2023/07/29 00:32:19;;;;;;;17.10;10.43;;;18.60;99.90;;;;;;6219155;22;20023;-69
2023/07/29 00:34:45;;;;;;;18.52;10.75;;;18.60;99.90;;;;;;6244460;22;20027;-69
2023/07/29 00:37:11;;;;;;;18.08;11.45;;;18.60;99.90;;;;;;6244521;22;20015;-69
2023/07/29 00:39:37;;;;;;;17.55;11.77;;;18.60;99.90;;;;;;6244454;22;20491;-69
2023/07/29 00:42:04;;;;;;;17.35;11.85;;;18.60;99.90;;;;;;6244040;22;20020;-69
2023/07/29 00:44:31;;;;;;;17.63;11.05;;;18.60;99.90;;;;;;6244517;22;20015;-69
2023/07/29 00:46:58;;;;;;;19.85;11.77;;;18.60;99.90;;;;;;6244275;22;20028;-69
2023/07/29 00:49:24;;;;;;;17.67;11.73;;;18.70;99.90;;;;;;6219222;22;20024;-69
2023/07/29 00:51:50;;;;;;;14.80;10.50;;;18.60;99.90;;;;;;6219268;22;20099;-69
2023/07/29 00:54:16;;;;;;;14.40;10.43;;;18.50;99.90;;;;;;6244784;22;20030;-69
2023/07/29 00:56:42;;;;;;;14.27;10.75;;;18.60;99.90;;;;;;6244224;22;20019;-69
2023/07/29 00:59:08;;;;;;;11.48;9.77;;;18.50;99.90;;;;;;6244683;22;20436;-68
2023/07/29 01:01:34;;;;;;;13.15;10.30;;;18.50;99.90;;;;;;6244492;22;20034;-69
2023/07/29 01:03:59;;;;;;;12.75;9.80;;;18.60;99.90;;;;;;6244503;22;20119;-69
2023/07/29 01:06:58;;;;;;;12.48;9.00;;;18.50;99.90;;;;;;6219027;22;20020;-69
2023/07/29 01:09:29;;;;;;;13.50;8.63;;;18.50;99.90;;;;;;6244296;22;20093;-69
2023/07/29 01:12:11;;;;;;;14.97;9.57;;;18.50;99.90;;;;;;6218671;22;20085;-69
2023/07/29 01:14:56;;;;;;;14.27;10.07;;;18.50;99.90;;;;;;6244417;22;20019;-69
2023/07/29 01:17:25;;;;;;;19.67;9.00;;;18.40;99.90;;;;;;6221657;22;20281;-69
2023/07/29 01:20:09;;;;;;;14.23;9.02;;;18.40;99.90;;;;;;6222317;22;20344;-69
2023/07/29 01:22:36;;;;;;;13.75;9.13;;;18.40;99.90;;;;;;6247416;22;20094;-69
2023/07/29 01:25:03;;;;;;;13.15;9.40;;;18.40;99.90;;;;;;6247165;22;20551;-69
2023/07/29 01:27:29;;;;;;;15.05;9.27;;;18.40;99.90;;;;;;6274824;22;20061;-69
2023/07/29 01:29:56;;;;;;;15.63;9.43;;;18.40;99.90;;;;;;6247531;22;20165;-69
2023/07/29 01:32:28;;;;;;;13.18;8.73;;;18.40;99.90;;;;;;6275080;22;20008;-69
2023/07/29 01:35:05;;;;;;;13.95;8.48;;;18.40;99.90;;;;;;6247670;22;20030;-69
2023/07/29 01:37:34;;;;;;;11.05;8.10;;;18.40;99.90;;;;;;6222163;22;20016;-69
2023/07/29 01:40:01;;;;;;;12.15;8.32;;;18.40;99.90;;;;;;6247297;22;20481;-69
2023/07/29 01:42:27;;;;;;;11.00;7.70;;;18.40;99.90;;;;;;6247548;22;20019;-69
2023/07/29 01:44:53;;;;;;;9.82;7.85;;;18.40;99.90;;;;;;6247383;22;20015;-69
2023/07/29 01:47:19;;;;;;;15.27;8.57;;;18.40;99.90;;;;;;6247684;22;20032;-69
2023/07/29 01:49:44;;;;;;;11.70;8.55;;;18.40;99.90;;;;;;6247743;22;20074;-69
2023/07/29 01:52:10;;;;;;;11.00;8.25;;;18.40;99.90;;;;;;6222268;22;20058;-69
2023/07/29 01:54:36;;;;;;;10.38;7.35;;;18.40;99.90;;;;;;6247539;22;20085;-69
2023/07/29 01:57:02;;;;;;;12.35;8.60;;;18.40;99.90;;;;;;6247895;22;20026;-69
2023/07/29 01:59:27;;;;;;;10.38;7.43;;;18.40;99.90;;;;;;6247691;22;20019;-69
2023/07/29 02:01:53;;;;;;;11.13;7.43;;;18.30;99.90;;;;;;6274838;22;20355;-69
2023/07/29 02:04:18;;;;;;;9.80;7.47;;;18.40;99.90;;;;;;6274905;22;20020;-69
2023/07/29 02:06:44;;;;;;;9.98;8.27;;;18.40;99.90;;;;;;6247506;22;20023;-69
2023/07/29 02:09:10;;;;;;;11.52;7.38;;;18.40;99.90;;;;;;6222207;22;20023;-69
2023/07/29 02:11:36;;;;;;;10.95;7.18;;;18.30;99.90;;;;;;6247242;22;20521;-69
2023/07/29 02:14:02;;;;;;;8.68;6.95;;;18.40;99.90;;;;;;6221993;22;20098;-69
2023/07/29 02:16:27;;;;;;;9.95;6.72;;;18.40;99.90;;;;;;6247201;22;20016;-69
2023/07/29 02:18:53;;;;;;;9.77;7.13;;;18.30;99.90;;;;;;6247424;22;20027;-69
2023/07/29 02:21:19;;;;;;;11.30;7.03;;;18.40;99.90;;;;;;6247467;22;20027;-69
2023/07/29 02:23:44;;;;;;;10.32;6.80;;;18.30;99.90;;;;;;6247116;22;20020;-70
2023/07/29 02:26:11;;;;;;;10.98;6.25;;;18.30;99.90;;;;;;6274173;22;20024;-69
2023/07/29 02:28:36;;;;;;;9.25;6.65;;;18.30;99.90;;;;;;6245699;22;20063;-69
2023/07/29 02:31:14;;;;;;;10.23;6.50;;;18.30;99.90;;;;;;6245586;22;20091;-69
2023/07/29 02:33:40;;;;;;;7.60;5.93;;;18.30;99.90;;;;;;6245926;22;20039;-69
2023/07/29 02:36:05;;;;;;;9.82;6.22;;;18.30;99.90;;;;;;6245818;22;20024;-69
2023/07/29 02:38:31;;;;;;;9.57;6.72;;;18.30;99.90;;;;;;6245733;22;20031;-69
2023/07/29 02:40:57;;;;;;;8.57;6.50;;;18.30;99.90;;;;;;6273530;22;20395;-69
2023/07/29 02:43:22;;;;;;;11.52;7.10;;;18.20;99.90;;;;;;6245968;22;20012;-69
2023/07/29 02:45:48;;;;;;;9.70;6.47;;;18.20;99.90;;;;;;6246093;22;20099;-69
2023/07/29 02:48:14;;;;;;;12.80;7.32;;;18.20;99.90;;;;;;6245520;22;20077;-69
2023/07/29 02:50:39;;;;;;;7.53;5.57;;;18.20;99.90;;;;;;6245706;22;20020;-69
2023/07/29 02:53:05;;;;;;;12.73;6.28;;;18.20;99.90;;;;;;6244632;22;20031;-69
2023/07/29 02:55:31;;;;;;;11.98;6.47;;;18.20;99.90;;;;;;6272683;22;20115;-69
2023/07/29 02:57:56;;;;;;;8.38;5.18;;;18.20;99.90;;;;;;6220066;22;20027;-69
2023/07/29 03:00:22;;;;;;;7.88;5.70;;;18.10;99.90;;;;;;6245658;22;20011;-69
2023/07/29 03:02:49;;;;;;;10.98;6.20;;;18.10;99.90;;;;;;6245691;22;20019;-69
2023/07/29 03:05:15;;;;;;;8.63;5.55;;;18.20;99.90;;;;;;6273075;22;20027;-69
2023/07/29 03:07:40;;;;;;;6.97;5.50;;;18.10;99.90;;;;;;6245602;22;20038;-69
2023/07/29 03:10:06;;;;;;;7.57;5.00;;;18.10;99.90;;;;;;6245426;22;20023;-69
2023/07/29 03:12:32;;;;;;;7.00;5.03;;;18.10;99.90;;;;;;6219906;22;20023;-69
2023/07/29 03:14:59;;;;;;;7.40;5.00;;;18.10;99.90;;;;;;6245298;22;20057;-69
2023/07/29 03:17:25;;;;;;;7.57;4.38;;;18.10;99.90;;;;;;6245096;22;20015;-69
2023/07/29 03:19:51;;;;;;;7.28;4.68;;;18.10;99.90;;;;;;6245215;22;20039;-69
2023/07/29 03:22:17;;;;;;;5.70;4.32;;;18.00;99.90;;;;;;6272344;22;20035;-69
2023/07/29 03:24:43;;;;;;;6.28;4.80;;;18.00;99.90;;;;;;6244589;22;20054;-69
2023/07/29 03:27:09;;;;;;;6.57;4.70;;;18.00;99.90;;;;;;6219769;22;20065;-69
2023/07/29 03:29:35;;;;;;;7.55;4.20;;;18.00;99.90;;;;;;6245327;22;20022;-69
2023/07/29 03:32:01;;;;;;;11.23;3.92;;;17.90;99.90;;;;;;6245071;22;20028;-69
2023/07/29 03:34:27;;;;;;;5.60;3.95;;;17.90;99.90;;;;;;6245423;22;20081;-69
2023/07/29 03:36:53;;;;;;;6.07;4.07;;;17.90;99.90;;;;;;6244675;22;20051;-69
2023/07/29 03:39:18;;;;;;;5.55;3.72;;;17.90;99.90;;;;;;6245044;22;20023;-69
2023/07/29 03:41:44;;;;;;;6.13;3.70;;;17.90;99.90;;;;;;6219649;22;20062;-69
2023/07/29 03:44:10;;;;;;;4.82;3.42;;;17.90;99.90;;;;;;6244754;22;20108;-69
2023/07/29 03:46:36;;;;;;;3.83;3.33;;;17.80;99.90;;;;;;6219659;22;20024;-69
2023/07/29 03:49:03;;;;;;;5.43;3.42;;;17.80;99.90;;;;;;6219831;22;20120;-69
2023/07/29 03:51:28;;;;;;;4.82;3.83;;;17.90;99.90;;;;;;6244547;22;20062;-69
2023/07/29 03:53:54;;;;;;;4.30;3.60;;;17.80;99.90;;;;;;6272546;22;20011;-69
2023/07/29 03:56:20;;;;;;;4.78;3.40;;;17.70;99.90;;;;;;6272474;22;20022;-69
2023/07/29 03:58:46;;;;;;;5.38;3.38;;;17.70;99.90;;;;;;6244859;22;20471;-69
2023/07/29 04:01:12;;;;;;;7.10;4.07;;;17.70;99.90;;;;;;6244677;22;20094;-69
2023/07/29 04:03:38;;;;;;;4.20;3.25;;;17.70;99.90;;;;;;6244689;22;20050;-69
2023/07/29 04:06:04;;;;;;;5.50;3.50;;;17.70;99.90;;;;;;6244459;22;20106;-69
2023/07/29 04:08:29;;;;;;;5.03;3.33;;;17.70;99.90;;;;;;6271991;22;20340;-69
2023/07/29 04:10:55;;;;;;;7.60;3.15;;;17.60;99.90;;;;;;6244521;22;20455;-69
2023/07/29 04:13:21;;;;;;;5.30;2.83;;;17.60;99.90;;;;;;6244901;22;20052;-69
2023/07/29 04:15:47;;;;;;;4.60;3.50;;;17.60;99.90;;;;;;6244862;22;20020;-69
2023/07/29 04:18:13;;;;;;;5.13;3.33;;;17.60;99.90;;;;;;6244551;22;20015;-69
2023/07/29 04:20:38;;;;;;;5.22;3.63;;;17.60;99.90;;;;;;6244627;22;20647;-69
2023/07/29 04:23:04;;;;;;;4.43;3.38;;;17.60;99.90;;;;;;6245035;22;20016;-69
2023/07/29 04:25:30;;;;;;;3.67;3.05;;;17.60;99.90;;;;;;6220079;22;20028;-69
2023/07/29 04:27:57;;;;;;;6.50;3.15;;;17.50;99.90;;;;;;6244889;22;20350;-69
2023/07/29 04:30:23;;;;;;;5.35;3.00;;;17.60;99.90;;;;;;6244776;22;20015;-69
2023/07/29 04:32:49;;;;;;;5.43;3.60;;;17.60;99.90;;;;;;6271808;22;20348;-69
2023/07/29 04:35:15;;;;;;;7.97;2.88;;;17.60;99.90;;;;;;6244358;22;20019;-69
2023/07/29 04:37:41;;;;;;;7.63;3.15;;;17.60;99.90;;;;;;6244516;22;20016;-69
2023/07/29 04:40:07;;;;;;;7.80;3.20;;;17.60;99.90;;;;;;6219194;22;20020;-69
2023/07/29 04:42:33;;;;;;;4.70;2.78;;;17.70;99.90;;;;;;6244341;22;20020;-69
2023/07/29 04:44:58;;;;;;;4.40;2.83;;;17.70;99.90;;;;;;6245060;22;20031;-69
2023/07/29 04:47:24;;;;;;;3.15;2.25;;;17.70;99.90;;;;;;6219197;22;20023;-69
2023/07/29 04:49:50;;;;;;;4.25;3.00;;;17.70;99.90;;;;;;6218936;22;20027;-70
2023/07/29 04:52:16;;;;;;;4.60;2.13;;;17.70;99.90;;;;;;6218635;22;20027;-69
2023/07/29 04:54:41;;;;;;;7.03;2.85;;;17.70;99.90;;;;;;6218883;22;20020;-69
2023/07/29 04:57:07;;;;;;;4.97;2.80;;;17.70;99.90;;;;;;6219229;22;20418;-69
2023/07/29 04:59:33;;;;;;;4.13;2.50;;;17.70;99.90;;;;;;6244170;22;20015;-69
2023/07/29 05:01:58;;;;;;;4.53;2.40;;;17.70;99.90;;;;;;6244315;22;20352;-69
2023/07/29 05:04:24;;;;;;;4.78;2.45;;;17.70;99.90;;;;;;6218845;22;20011;-69
2023/07/29 05:06:50;;;;;;;6.43;2.95;;;17.70;99.90;;;;;;6235686;22;20093;-80
2023/07/29 05:09:17;;;;;;;4.50;2.40;;;17.80;99.90;;;;;;6244837;22;20024;-80
2023/07/29 05:11:45;;;;;;;6.78;2.63;;;17.80;99.90;;;;;;6244836;22;20149;-79
2023/07/29 05:14:14;;;;;;;6.03;2.45;;;17.80;99.90;;;;;;6245036;22;20058;-80
2023/07/29 05:16:40;;;;;;;3.55;2.80;;;17.80;99.90;;;;;;6244623;22;20032;-80
2023/07/29 05:19:06;;;;;;;6.70;2.63;;;17.80;99.90;;;;;;6244699;22;20101;-80
2023/07/29 05:21:31;;;;;;;4.05;2.72;;;17.80;99.90;;;;;;6244754;22;20027;-80
2023/07/29 05:23:57;;;;;;;5.22;2.65;;;17.80;99.90;;;;;;6272085;22;20118;-80
2023/07/29 05:26:25;;;;;;;5.53;2.60;;;17.80;99.90;;;;;;6272089;22;20098;-80
2023/07/29 05:28:50;;;;;;;2.80;2.20;;;17.90;99.90;;;;;;6271904;22;20031;-79
2023/07/29 05:31:16;;;;;;;5.88;3.15;;;17.90;99.90;;;;;;6271855;22;20027;-79
2023/07/29 05:33:42;;;;;;;6.53;3.00;;;17.90;99.90;;;;;;6271654;22;20324;-79
2023/07/29 05:36:07;;;;;;;5.82;3.03;;;17.90;99.90;;;;;;6272156;22;20020;-79
2023/07/29 05:38:33;;;;;;;6.35;3.55;;;17.90;99.90;;;;;;6273278;22;20087;-79
2023/07/29 05:40:59;;;;;;;7.75;3.47;;;17.90;99.90;;;;;;6244987;22;20107;-79
2023/07/29 05:43:24;;;;;;;7.15;3.42;;;18.00;99.90;;;;;;6244335;22;20085;-79
2023/07/29 05:45:50;;;;;;;5.60;3.13;;;18.00;99.90;;;;;;6272407;22;20035;-79
2023/07/29 05:48:16;;;;;;;6.07;3.63;;;17.90;99.90;;;;;;6244391;22;20633;-79
2023/07/29 05:50:42;;;;;;;7.30;4.00;;;17.90;99.90;;;;;;6244110;22;20028;-78
2023/07/29 05:53:08;;;;;;;6.07;3.97;;;18.00;99.90;;;;;;6244414;22;20025;-78
2023/07/29 05:55:33;;;;;;;7.57;3.70;;;18.00;99.90;;;;;;6244323;22;20090;-78
2023/07/29 05:57:59;;;;;;;6.88;3.90;;;18.00;99.90;;;;;;6272026;22;20023;-78
2023/07/29 06:00:25;;;;;;;8.45;4.28;;;18.00;99.90;;;;;;6272370;22;20087;-77
2023/07/29 06:02:51;;;;;;;8.85;4.15;;;18.00;99.90;;;;;;6271915;22;20024;-78
2023/07/29 06:05:17;;;;;;;5.88;3.97;;;18.00;99.90;;;;;;6246346;22;20019;-78
2023/07/29 06:07:47;;;;;;;7.93;4.47;;;18.10;99.90;;;;;;6273663;22;20058;-78
2023/07/29 06:10:17;;;;;;;7.22;4.00;;;18.10;99.90;;;;;;6246334;22;20054;-78
2023/07/29 06:12:43;;;;;;;7.07;4.38;;;18.10;99.90;;;;;;6273623;22;20024;-78
2023/07/29 06:15:09;;;;;;;10.13;4.47;;;18.20;99.90;;;;;;6251429;22;20019;-78
2023/07/29 06:17:35;;;;;;;9.57;4.90;;;18.20;99.90;;;;;;6251972;22;20031;-77
2023/07/29 06:20:00;;;;;;;9.82;5.38;;;18.20;99.90;;;;;;6279117;22;20544;-77
2023/07/29 06:22:26;;;;;;;11.32;5.25;;;18.30;99.90;;;;;;6252407;22;20070;-77
2023/07/29 06:24:52;;;;;;;7.85;4.50;;;18.30;99.90;;;;;;6279917;22;20077;-78
2023/07/29 06:27:17;;;;;;;12.07;4.88;;;18.40;99.90;;;;;;6279161;22;20027;-78
2023/07/29 06:29:43;;;;;;;9.18;4.75;;;18.40;99.90;;;;;;6273381;22;20028;-78
2023/07/29 06:32:09;;;;;;;8.05;5.53;;;18.40;99.90;;;;;;6273174;22;20020;-79
2023/07/29 06:34:34;;;;;;;9.25;5.75;;;18.40;99.90;;;;;;6273323;22;20031;-78
2023/07/29 06:37:00;;;;;;;7.25;4.80;;;18.40;99.90;;;;;;6273571;22;20020;-78
2023/07/29 06:39:26;;;;;;;10.63;5.32;;;18.50;99.90;;;;;;6245949;22;20473;-79
2023/07/29 06:41:51;;;;;;;12.25;4.50;;;18.50;99.90;;;;;;6246212;22;20051;-79
2023/07/29 06:44:17;;;;;;;14.18;5.25;;;18.50;99.90;;;;;;6246535;22;20181;-79
2023/07/29 06:46:43;;;;;;;13.65;5.13;;;18.50;99.90;;;;;;6273391;22;20313;-80
2023/07/29 06:49:09;;;;;;;12.40;5.30;;;18.60;99.90;;;;;;6246385;22;20499;-79
2023/07/29 06:51:35;;;;;;;10.82;4.90;;;18.70;99.90;;;;;;6246378;22;20035;-80
2023/07/29 06:54:04;;;;;;;7.25;4.80;;;18.70;99.90;;;;;;6246178;22;20079;-80
2023/07/29 06:56:30;;;;;;;7.82;4.55;;;18.60;99.90;;;;;;6273841;22;20034;-82
2023/07/29 06:58:55;;;;;;;9.18;4.80;;;18.70;99.90;;;;;;6245825;22;20020;-80
2023/07/29 07:01:21;;;;;;;8.60;5.05;;;18.70;99.90;;;;;;6245806;22;20098;-80
2023/07/29 07:03:47;;;;;;;8.52;5.18;;;18.70;99.90;;;;;;6246219;22;20125;-80
2023/07/29 07:06:12;;;;;;;10.18;4.78;;;18.80;99.90;;;;;;6273370;22;20031;-79
2023/07/29 07:08:38;;;;;;;13.88;4.47;;;18.80;99.90;;;;;;6272255;22;20026;-80
2023/07/29 07:11:04;;;;;;;10.43;4.60;;;18.80;99.90;;;;;;6272711;22;20051;-80
2023/07/29 07:13:29;;;;;;;10.27;5.25;;;18.90;99.90;;;;;;6244862;22;20073;-80
2023/07/29 07:15:56;;;;;;;9.75;4.47;;;18.90;99.90;;;;;;6272264;22;20020;-80
2023/07/29 07:18:24;;;;;;;9.55;4.95;;;18.80;99.90;;;;;;6245685;22;20473;-78
2023/07/29 07:20:50;;;;;;;10.10;5.50;;;18.90;99.90;;;;;;6272920;22;20421;-76
2023/07/29 07:23:16;;;;;;;8.00;5.40;;;18.90;99.90;;;;;;6245835;22;20023;-81
2023/07/29 07:25:42;;;;;;;13.32;5.35;;;19.00;99.90;;;;;;6272957;22;20351;-80
2023/07/29 07:28:09;;;;;;;13.43;5.07;;;19.10;99.90;;;;;;6245123;22;20026;-81
2023/07/29 07:30:34;;;;;;;8.68;4.60;;;19.10;99.90;;;;;;6245716;22;20028;-81
2023/07/29 07:33:01;;;;;;;8.18;4.90;;;19.30;99.90;;;;;;6245623;22;20240;-81
2023/07/29 07:35:26;;;;;;;10.20;5.07;;;19.40;99.90;;;;;;6273035;22;20020;-82
2023/07/29 07:37:52;;;;;;;11.07;4.35;;;19.50;99.90;;;;;;6245877;22;20023;-82
2023/07/29 07:40:18;;;;;;;8.60;4.50;;;19.60;99.90;;;;;;6245651;22;20022;-81
2023/07/29 07:42:44;;;;;;;6.97;4.38;;;19.80;99.90;;;;;;6272624;22;20085;-81
2023/07/29 07:45:09;;;;;;;6.70;4.53;;;19.80;99.90;;;;;;6272414;22;20404;-81
2023/07/29 07:47:35;;;;;;;8.65;4.22;;;19.90;99.90;;;;;;6272740;22;20039;-82
2023/07/29 07:50:01;;;;;;;8.18;3.70;;;19.90;99.90;;;;;;6273136;22;20494;-82
2023/07/29 07:52:27;;;;;;;9.18;3.45;;;20.00;99.90;;;;;;6272791;22;20019;-82
2023/07/29 07:54:54;;;;;;;5.40;3.85;;;20.10;99.90;;;;;;6245359;22;20095;-82
2023/07/29 07:57:21;;;;;;;9.00;3.22;;;20.30;99.90;;;;;;6220652;22;20034;-82
2023/07/29 07:59:52;;;;;;;7.95;3.08;;;20.20;99.90;;;;;;6273351;22;20121;-83
2023/07/29 08:02:18;;;;;;;6.28;3.25;;;20.30;99.90;;;;;;6273120;22;20020;-83
2023/07/29 08:04:44;;;;;;;10.60;3.65;;;20.30;99.90;;;;;;6245247;22;20027;-83
2023/07/29 08:07:09;;;;;;;6.15;3.08;;;20.30;99.90;;;;;;6245633;22;20126;-83
2023/07/29 08:09:35;;;;;;;5.05;2.80;;;20.30;99.90;;;;;;6245590;22;20101;-84
2023/07/29 08:12:01;;;;;;;7.30;3.30;;;20.30;99.90;;;;;;6244900;22;20051;-83
2023/07/29 08:14:27;;;;;;;5.35;3.13;;;20.30;99.90;;;;;;6245225;22;20015;-80
2023/07/29 08:16:52;;;;;;;4.47;2.60;;;20.20;99.90;;;;;;6245022;22;20095;-81
2023/07/29 08:19:18;;;;;;;7.35;3.08;;;20.30;99.90;;;;;;6245688;22;20020;-81
2023/07/29 08:21:44;;;;;;;4.88;2.83;;;20.50;99.90;;;;;;6244823;22;20110;-81
2023/07/29 08:24:10;;;;;;;6.35;2.63;;;20.60;99.90;;;;;;6245076;22;20030;-81
2023/07/29 08:26:35;;;;;;;11.98;2.95;;;20.60;99.90;;;;;;6271614;22;20481;-80
2023/07/29 08:29:01;;;;;;;4.78;2.80;;;20.60;99.90;;;;;;6244169;22;20763;-81
2023/07/29 08:31:27;;;;;;;9.02;3.28;;;20.70;99.90;;;;;;6272253;22;20020;-81
2023/07/29 08:33:52;;;;;;;5.05;2.67;;;20.60;99.90;;;;;;6245410;22;20027;-81
2023/07/29 08:36:18;;;;;;;4.93;2.50;;;20.70;99.90;;;;;;6245739;22;20027;-81
2023/07/29 08:38:44;;;;;;;6.00;2.55;;;20.70;99.90;;;;;;6245135;22;20105;-81
2023/07/29 08:41:27;;;;;;;9.00;2.60;;;20.80;99.90;;;;;;6244826;22;20094;-81
2023/07/29 08:44:11;;;;;;;5.38;2.63;;;20.90;99.90;;;;;;6272380;22;20020;-81
2023/07/29 08:46:39;;;;;;;3.45;2.80;;;20.90;99.90;;;;;;6245069;22;20019;-81
2023/07/29 08:49:06;;;;;;;4.40;2.50;;;20.90;99.90;;;;;;6271946;22;20055;-81
2023/07/29 08:51:32;;;;;;;6.25;2.75;;;20.90;99.90;;;;;;6244682;22;20024;-81
2023/07/29 08:53:59;;;;;;;7.05;2.88;;;21.00;99.90;;;;;;6244692;22;20018;-81
2023/07/29 08:56:25;;;;;;;4.35;2.50;;;21.20;99.90;;;;;;6219168;22;20028;-81
2023/07/29 08:58:52;;;;;;;4.85;2.63;;;21.30;99.90;;;;;;6243193;22;20020;-78
2023/07/29 09:01:18;;;;;;;5.70;2.35;;;21.50;99.90;;;;;;6243054;22;20016;-79
2023/07/29 09:03:43;;;;;;;3.60;2.25;;;21.60;99.90;;;;;;6242297;22;20019;-74
2023/07/29 09:06:09;;;;;;;4.28;2.20;;;21.70;99.90;;;;;;6241403;22;20109;-75
2023/07/29 09:08:35;;;;;;;5.93;2.15;;;21.60;99.90;;;;;;6267585;22;20027;-75
2023/07/29 09:11:01;;;;;;;5.32;2.28;;;21.60;99.90;;;;;;6270423;22;20058;-72
2023/07/29 09:13:27;;;;;;;4.05;2.08;;;21.60;99.90;;;;;;6270246;22;20435;-75
2023/07/29 09:15:57;;;;;;;4.90;1.95;;;21.70;99.90;;;;;;6270438;22;20015;-75
2023/07/29 09:18:25;;;;;;;2.92;1.55;;;21.80;99.90;;;;;;6270161;22;20458;-75
2023/07/29 09:20:53;;;;;;;3.75;2.28;;;21.90;99.90;;;;;;6268856;22;20032;-75
2023/07/29 09:23:18;;;;;;;4.32;2.08;;;21.90;99.90;;;;;;6270431;22;20069;-75
2023/07/29 09:25:47;;;;;;;3.92;1.50;;;22.00;99.90;;;;;;6269515;22;20020;-75
2023/07/29 09:28:15;;;;;;;3.67;1.90;;;22.00;99.90;;;;;;6270412;22;20038;-75
2023/07/29 09:30:42;;;;;;;2.95;1.63;;;22.00;99.90;;;;;;6269830;22;20337;-74
2023/07/29 09:33:09;;;;;;;2.45;1.88;;;22.10;99.90;;;;;;6270064;22;20373;-75
2023/07/29 09:35:36;;;;;;;6.35;1.85;;;22.20;99.90;;;;;;6268405;22;20051;-76
2023/07/29 09:38:06;;;;;;;4.07;1.60;;;22.30;99.90;;;;;;6269106;22;20035;-76
2023/07/29 09:40:37;;;;;;;2.90;1.33;;;22.20;99.90;;;;;;6271980;22;20019;-74
2023/07/29 09:43:04;;;;;;;4.18;2.42;;;22.10;99.90;;;;;;6270293;22;20043;-74
2023/07/29 09:45:30;;;;;;;2.97;1.30;;;22.10;99.90;;;;;;6270226;22;20038;-74
2023/07/29 09:47:58;;;;;;;4.18;1.45;;;22.10;99.90;;;;;;6270386;22;20048;-74
2023/07/29 09:50:25;;;;;;;3.83;1.60;;;22.20;99.90;;;;;;6272320;22;20015;-75
2023/07/29 09:52:52;;;;;;;3.80;1.50;;;22.20;99.90;;;;;;6272398;22;20407;-75
2023/07/29 09:55:20;;;;;;;3.85;1.50;;;22.30;99.90;;;;;;6272016;22;20011;-74
2023/07/29 09:57:45;;;;;;;4.10;1.65;;;22.20;99.90;;;;;;6272496;22;20026;-74
2023/07/29 10:00:12;;;;;;;5.43;1.63;;;22.30;99.90;;;;;;6272403;22;20430;-75
2023/07/29 10:02:43;;;;;;;4.10;1.50;;;22.30;99.90;;;;;;6272050;22;20394;-75
2023/07/29 10:05:10;;;;;;;6.15;1.90;;;22.20;99.90;;;;;;6272431;22;20079;-75
2023/07/29 10:07:40;;;;;;;3.95;1.48;;;22.20;99.90;;;;;;6269567;22;20020;-75
2023/07/29 10:10:07;;;;;;;5.13;1.50;;;22.20;99.90;;;;;;6270230;22;20012;-75
2023/07/29 10:12:34;;;;;;;3.45;1.60;;;22.30;99.90;;;;;;6271697;22;20021;-75
2023/07/29 10:15:04;;;;;;;3.83;1.95;;;22.40;99.90;;;;;;6272119;22;20051;-75
2023/07/29 10:17:33;;;;;;;5.28;1.65;;;22.50;99.90;;;;;;6269807;22;20027;-75
2023/07/29 10:19:59;;;;;;;2.17;1.20;;;22.60;99.90;;;;;;6271968;22;20016;-74
2023/07/29 10:22:28;;;;;;;2.55;1.60;;;22.60;99.90;;;;;;6269356;22;20020;-75
2023/07/29 10:25:02;;;;;;;3.90;1.40;;;22.50;99.90;;;;;;6271491;22;20030;-76
2023/07/29 10:27:29;;;;;;;4.60;1.85;;;22.50;99.90;;;;;;6272150;22;20329;-75
2023/07/29 10:29:56;;;;;;;2.83;1.73;;;22.50;99.90;;;;;;6272038;22;20023;-75
2023/07/29 10:32:26;;;;;;;5.15;1.83;;;22.50;99.90;;;;;;6269971;22;20023;-75
2023/07/29 10:34:52;;;;;;;2.42;1.95;;;22.50;99.90;;;;;;6271961;22;20462;-75
2023/07/29 10:37:18;;;;;;;4.72;1.70;;;22.50;99.90;;;;;;6269896;22;20055;-75
2023/07/29 10:39:54;;;;;;;8.05;2.40;;;22.50;99.90;;;;;;6271580;22;20355;-75
2023/07/29 10:42:21;;;;;;;4.28;2.08;;;22.60;99.90;;;;;;6271654;22;20028;-75
2023/07/29 10:44:51;;;;;;;3.40;1.90;;;22.60;99.90;;;;;;6271857;22;20082;-75
2023/07/29 10:47:27;;;;;;;6.13;2.13;;;22.60;99.90;;;;;;6269752;22;20455;-76
2023/07/29 10:49:59;;;;;;;3.45;2.20;;;22.60;99.90;;;;;;6269185;22;20459;-76
2023/07/29 10:52:34;;;;;;;3.75;2.10;;;22.50;99.90;;;;;;6269381;22;20358;-76
2023/07/29 10:55:01;;;;;;;4.55;2.55;;;22.50;99.90;;;;;;6269516;22;20347;-76
2023/07/29 10:57:34;;;;;;;4.28;2.33;;;22.40;99.90;;;;;;6271293;22;20016;-76
2023/07/29 11:00:02;;;;;;;5.13;3.15;;;22.40;99.90;;;;;;6270167;22;20046;-81
2023/07/29 11:02:32;;;;;;;4.90;3.05;;;22.40;99.90;;;;;;6270123;22;20023;-82
2023/07/29 11:04:59;;;;;;;6.43;3.83;;;22.30;99.90;;;;;;6273673;22;20046;-83
2023/07/29 11:07:27;;;;;;;6.15;3.35;;;22.20;99.90;;;;;;6272799;22;20404;-84
2023/07/29 11:09:58;;;;;;;6.28;3.60;;;22.00;99.90;;;;;;6273096;22;20024;-83
2023/07/29 11:12:46;;;;;;;5.20;3.50;;;22.00;99.90;;;;;;6272643;22;20526;-85
2023/07/29 11:15:12;;;;;;;5.03;3.17;;;22.10;99.90;;;;;;6273377;22;20091;-84
2023/07/29 11:17:42;;;;;;;4.22;3.13;;;22.20;99.90;;;;;;6273466;22;20015;-85
2023/07/29 11:20:08;;;;;;;5.72;2.90;;;22.30;99.90;;;;;;6271177;22;20019;-85
2023/07/29 11:22:34;;;;;;;5.43;2.58;;;22.30;99.90;;;;;;6273247;22;20154;-83
2023/07/29 11:25:00;;;;;;;4.57;2.50;;;22.40;99.90;;;;;;6272576;22;20420;-75
2023/07/29 11:27:25;;;;;;;6.82;2.65;;;22.40;99.90;;;;;;6270523;22;20050;-82
2023/07/29 11:30:06;;;;;;;7.78;3.15;;;22.40;99.90;;;;;;6271591;22;20023;-86
2023/07/29 11:32:33;;;;;;;4.80;2.72;;;22.40;99.90;;;;;;6271014;22;20063;-86
2023/07/29 11:35:18;;;;;;;6.10;2.78;;;22.50;99.90;;;;;;6270867;22;20065;-84
2023/07/29 11:37:48;;;;;;;3.25;2.40;;;22.60;99.90;;;;;;6271271;22;20020;-86
2023/07/29 11:40:19;;;;;;;3.80;2.58;;;22.60;99.90;;;;;;6271192;22;20056;-86
2023/07/29 11:42:47;;;;;;;4.10;2.60;;;22.80;99.90;;;;;;6272682;22;20095;-85
2023/07/29 11:45:14;;;;;;;11.85;2.58;;;22.90;99.90;;;;;;6245390;22;20026;-86
2023/07/29 11:47:39;;;;;;;8.07;2.25;;;22.90;99.90;;;;;;6272685;22;20064;-87
2023/07/29 11:50:09;;;;;;;3.65;2.20;;;23.00;99.90;;;;;;6245580;22;20050;-87
2023/07/29 11:52:39;;;;;;;4.22;2.17;;;23.10;99.90;;;;;;6272996;22;20106;-86
2023/07/29 11:55:05;;;;;;;3.75;1.90;;;23.10;99.90;;;;;;6273045;22;20024;-86
2023/07/29 11:57:36;;;;;;;3.15;2.10;;;23.10;99.90;;;;;;6272955;22;20026;-85
2023/07/29 12:00:04;;;;;;;4.07;2.20;;;23.10;99.90;;;;;;6273285;22;20023;-84
2023/07/29 12:02:30;;;;;;;3.58;1.45;;;23.10;99.90;;;;;;6271453;22;20485;-85
2023/07/29 12:04:57;;;;;;;3.80;2.55;;;23.20;99.90;;;;;;6271106;22;20347;-86
2023/07/29 12:07:23;;;;;;;4.63;2.60;;;23.20;99.90;;;;;;6272414;22;20459;-85
2023/07/29 12:09:50;;;;;;;8.13;1.98;;;23.30;99.90;;;;;;6270568;22;20051;-86
2023/07/29 12:12:16;;;;;;;4.45;1.63;;;23.30;99.90;;;;;;6272826;22;20055;-86
2023/07/29 12:14:48;;;;;;;4.85;1.77;;;23.40;99.90;;;;;;6273017;22;20027;-86
2023/07/29 12:17:15;;;;;;;4.82;2.17;;;23.30;99.90;;;;;;6272897;22;20012;-86
2023/07/29 12:19:42;;;;;;;4.53;1.88;;;23.30;99.90;;;;;;6272795;22;20023;-87
2023/07/29 12:22:12;;;;;;;3.60;1.75;;;23.30;99.90;;;;;;6272767;22;20050;-86
2023/07/29 12:24:39;;;;;;;4.22;1.70;;;23.20;99.90;;;;;;6271345;22;20094;-86
2023/07/29 12:27:06;;;;;;;3.55;1.60;;;23.30;99.90;;;;;;6272777;22;20095;-86
2023/07/29 12:29:32;;;;;;;6.72;1.83;;;23.30;99.90;;;;;;6270824;22;20082;-85
2023/07/29 12:32:02;;;;;;;4.85;1.48;;;23.30;99.90;;;;;;6272669;22;20020;-85
2023/07/29 12:34:30;;;;;;;4.32;1.80;;;23.40;99.90;;;;;;6270764;22;20024;-86
2023/07/29 12:36:57;;;;;;;2.85;1.70;;;23.40;99.90;;;;;;6245664;22;20095;-85
2023/07/29 12:39:28;;;;;;;5.90;1.70;;;23.40;99.90;;;;;;6273180;22;20327;-85
2023/07/29 12:41:56;;;;;;;3.65;1.90;;;23.50;99.90;;;;;;6272947;22;20597;-86